createdAt,value
2018-11-29T00:00:53.966Z,7.20
2018-11-29T00:05:02.268Z,7.20
2018-11-29T00:09:10.545Z,7.20
2018-11-29T00:17:26.886Z,7.30
2018-11-29T00:21:35.141Z,7.30
2018-11-29T00:25:43.452Z,7.30
2018-11-29T00:29:51.787Z,7.40
2018-11-29T00:34:00.068Z,7.40
2018-11-29T00:38:08.358Z,7.40
2018-11-29T00:42:16.991Z,7.40
2018-11-29T00:46:25.258Z,7.40
2018-11-29T00:50:33.599Z,7.40
2018-11-29T00:54:41.834Z,7.60
2018-11-29T00:58:50.099Z,7.60
2018-11-29T01:02:58.336Z,7.60
2018-11-29T01:07:06.689Z,7.60
2018-11-29T01:11:14.959Z,7.60
2018-11-29T01:15:23.190Z,7.60
2018-11-29T01:19:31.487Z,7.70
2018-11-29T01:23:39.806Z,7.70
2018-11-29T01:27:49.952Z,7.70
2018-11-29T01:31:58.206Z,7.70
2018-11-29T01:36:06.955Z,7.80
2018-11-29T01:40:17.097Z,7.80
2018-11-29T01:44:25.428Z,7.80
2018-11-29T01:48:33.731Z,7.70
2018-11-29T01:52:42.011Z,7.80
2018-11-29T01:56:50.339Z,7.80
2018-11-29T02:00:58.653Z,7.80
2018-11-29T02:05:08.168Z,7.80
2018-11-29T02:09:16.467Z,7.90
2018-11-29T02:13:24.730Z,7.90
2018-11-29T02:17:33.037Z,7.80
2018-11-29T02:21:41.278Z,7.80
2018-11-29T02:25:49.702Z,7.90
2018-11-29T02:29:57.982Z,7.90
2018-11-29T02:34:06.507Z,7.90
2018-11-29T02:38:14.847Z,7.90
2018-11-29T02:42:23.227Z,7.90
2018-11-29T02:46:31.563Z,7.90
2018-11-29T02:50:39.859Z,7.90
2018-11-29T02:54:48.208Z,7.80
2018-11-29T02:58:56.530Z,7.80
2018-11-29T03:03:04.881Z,7.80
2018-11-29T03:07:13.208Z,7.90
2018-11-29T03:11:21.552Z,7.90
2018-11-29T03:15:29.879Z,7.90
2018-11-29T03:19:38.138Z,7.80
2018-11-29T03:27:54.489Z,7.80
2018-11-29T03:32:02.742Z,7.80
2018-11-29T03:36:11.060Z,7.90
2018-11-29T03:40:19.346Z,7.90
2018-11-29T03:44:27.726Z,7.90
2018-11-29T03:48:36.008Z,7.90
2018-11-29T03:52:44.307Z,7.90
2018-11-29T03:56:52.575Z,7.90
2018-11-29T04:01:00.883Z,7.90
2018-11-29T04:05:09.439Z,7.90
2018-11-29T04:09:18.310Z,7.90
2018-11-29T04:13:26.658Z,7.90
2018-11-29T04:17:40.738Z,8.00
2018-11-29T04:21:43.412Z,8.00
2018-11-29T04:25:51.717Z,7.90
2018-11-29T04:30:00.049Z,8.00
2018-11-29T04:34:08.349Z,8.00
2018-11-29T04:38:16.665Z,7.90
2018-11-29T04:42:24.930Z,7.90
2018-11-29T04:46:46.317Z,7.90
2018-11-29T04:50:54.679Z,7.90
2018-11-29T04:55:03.034Z,7.90
2018-11-29T04:59:11.351Z,7.90
2018-11-29T05:03:19.656Z,7.90
2018-11-29T05:07:27.953Z,7.90
2018-11-29T05:11:36.319Z,7.90
2018-11-29T05:15:44.671Z,7.90
2018-11-29T05:19:55.221Z,7.90
2018-11-29T05:24:03.570Z,7.80
2018-11-29T05:28:11.844Z,7.80
2018-11-29T05:32:20.321Z,7.80
2018-11-29T05:36:28.639Z,7.80
2018-11-29T05:40:36.976Z,7.80
2018-11-29T05:44:45.298Z,7.70
2018-11-29T05:48:53.589Z,7.70
2018-11-29T05:53:01.919Z,7.80
2018-11-29T05:57:10.190Z,7.70
2018-11-29T06:01:22.212Z,7.70
2018-11-29T06:05:30.525Z,7.80
2018-11-29T06:09:38.865Z,7.80
2018-11-29T06:13:47.146Z,7.80
2018-11-29T06:17:55.438Z,7.80
2018-11-29T06:22:03.721Z,7.80
2018-11-29T06:26:11.985Z,7.80
2018-11-29T06:30:21.411Z,7.80
2018-11-29T06:34:29.706Z,7.80
2018-11-29T06:38:38.048Z,7.80
2018-11-29T06:42:46.452Z,7.80
2018-11-29T06:46:54.894Z,7.90
2018-11-29T06:51:03.181Z,7.90
2018-11-29T06:55:18.080Z,7.90
2018-11-29T06:59:26.398Z,7.80
2018-11-29T07:03:34.704Z,7.80
2018-11-29T07:07:43.034Z,7.90
2018-11-29T07:11:51.340Z,7.90
2018-11-29T07:15:59.638Z,7.90
2018-11-29T07:20:12.379Z,7.90
2018-11-29T07:24:20.802Z,7.90
2018-11-29T07:28:29.144Z,7.90
2018-11-29T07:32:37.439Z,7.90
2018-11-29T07:36:45.710Z,7.90
2018-11-29T07:40:54.010Z,7.90
2018-11-29T07:45:02.352Z,7.90
2018-11-29T07:49:10.713Z,7.90
2018-11-29T07:53:19.006Z,8.00
2018-11-29T07:57:27.398Z,7.90
2018-11-29T08:01:35.682Z,8.00
2018-11-29T08:05:43.966Z,8.00
2018-11-29T08:09:52.392Z,8.00
2018-11-29T08:14:00.657Z,8.00
2018-11-29T08:18:09.041Z,8.10
2018-11-29T08:22:17.329Z,8.10
2018-11-29T08:26:25.657Z,8.10
2018-11-29T08:30:33.949Z,8.20
2018-11-29T08:34:42.191Z,8.20
2018-11-29T08:38:50.524Z,8.20
2018-11-29T08:42:58.805Z,8.20
2018-11-29T08:47:07.131Z,8.20
2018-11-29T08:51:15.409Z,8.30
2018-11-29T08:55:23.687Z,8.30
2018-11-29T08:59:31.949Z,8.30
2018-11-29T09:03:40.227Z,8.30
2018-11-29T09:07:49.447Z,8.40
2018-11-29T09:11:57.711Z,8.40
2018-11-29T09:16:06.115Z,8.50
2018-11-29T09:20:18.292Z,8.50
2018-11-29T09:24:26.571Z,8.50
2018-11-29T09:28:34.887Z,8.50
2018-11-29T09:32:43.546Z,8.60
2018-11-29T09:36:51.869Z,8.60
2018-11-29T09:41:00.142Z,8.60
2018-11-29T09:45:10.840Z,8.60
2018-11-29T09:49:19.078Z,8.60
2018-11-29T09:53:27.382Z,8.60
2018-11-29T09:57:35.675Z,8.60
2018-11-29T10:05:51.992Z,8.60
2018-11-29T10:10:00.244Z,8.60
2018-11-29T10:14:08.529Z,8.60
2018-11-29T10:18:16.811Z,8.50
2018-11-29T10:22:25.071Z,8.50
2018-11-29T10:26:33.349Z,8.50
2018-11-29T10:30:47.146Z,8.40
2018-11-29T10:34:55.541Z,8.40
2018-11-29T10:39:04.650Z,8.30
2018-11-29T10:43:12.905Z,8.30
2018-11-29T10:47:21.187Z,8.30
2018-11-29T10:51:29.507Z,8.30
2018-11-29T10:55:37.768Z,8.30
2018-11-29T10:59:46.033Z,8.30
2018-11-29T11:03:54.293Z,8.40
2018-11-29T11:08:08.273Z,8.30
2018-11-29T11:12:10.900Z,8.30
2018-11-29T11:16:19.183Z,8.30
2018-11-29T11:20:27.492Z,8.30
2018-11-29T11:24:35.762Z,8.30
2018-11-29T11:28:44.170Z,8.50
2018-11-29T11:32:52.779Z,8.40
2018-11-29T11:37:01.051Z,8.30
2018-11-29T11:41:09.414Z,8.30
2018-11-29T11:45:18.654Z,8.20
2018-11-29T11:49:26.910Z,8.20
2018-11-29T11:53:35.198Z,8.10
2018-11-29T11:57:43.946Z,8.20
2018-11-29T12:01:52.244Z,8.20
2018-11-29T12:06:00.537Z,8.20
2018-11-29T12:10:12.819Z,8.30
2018-11-29T12:14:21.127Z,8.30
2018-11-29T12:22:48.621Z,8.40
2018-11-29T12:26:56.894Z,8.50
2018-11-29T12:31:05.554Z,8.60
2018-11-29T12:35:14.138Z,8.70
2018-11-29T12:39:22.483Z,8.70
2018-11-29T12:43:30.770Z,8.60
2018-11-29T12:47:39.197Z,8.60
2018-11-29T12:51:48.622Z,8.60
2018-11-29T12:55:55.821Z,8.60
2018-11-29T13:00:04.656Z,8.60
2018-11-29T13:04:12.942Z,8.50
2018-11-29T13:08:24.587Z,8.50
2018-11-29T13:12:32.886Z,8.50
2018-11-29T13:16:41.152Z,8.50
2018-11-29T13:20:49.447Z,8.40
2018-11-29T13:24:57.680Z,8.40
2018-11-29T13:29:06.030Z,8.30
2018-11-29T13:33:14.334Z,8.30
2018-11-29T13:37:22.710Z,8.30
2018-11-29T13:41:30.987Z,8.40
2018-11-29T13:45:39.262Z,8.40
2018-11-29T13:49:47.558Z,8.40
2018-11-29T13:53:55.870Z,8.40
2018-11-29T13:58:04.170Z,8.30
2018-11-29T14:02:12.475Z,8.30
2018-11-29T14:06:20.838Z,8.30
2018-11-29T14:10:29.150Z,8.40
2018-11-29T14:14:37.518Z,8.30
2018-11-29T14:18:45.769Z,8.30
2018-11-29T14:22:54.059Z,8.40
2018-11-29T14:27:02.412Z,8.40
2018-11-29T14:31:10.685Z,8.50
2018-11-29T14:35:19.164Z,8.60
2018-11-29T14:39:27.318Z,8.60
2018-11-29T14:43:35.603Z,8.60
2018-11-29T14:47:43.958Z,8.60
2018-11-29T14:51:52.249Z,8.60
2018-11-29T14:56:00.626Z,8.60
2018-11-29T15:00:11.526Z,8.50
2018-11-29T15:04:19.842Z,8.50
2018-11-29T15:08:28.220Z,8.50
2018-11-29T15:12:36.557Z,8.50
2018-11-29T15:16:45.924Z,8.50
2018-11-29T15:20:54.239Z,8.50
2018-11-29T15:25:02.571Z,8.40
2018-11-29T15:29:10.856Z,8.30
2018-11-29T15:33:19.205Z,8.30
2018-11-29T15:37:27.534Z,8.30
2018-11-29T15:41:35.956Z,8.20
2018-11-29T15:45:44.274Z,8.20
2018-11-29T15:49:52.590Z,8.20
2018-11-29T15:54:00.895Z,8.10
2018-11-29T15:58:09.278Z,8.10
2018-11-29T16:02:17.582Z,8.10
2018-11-29T16:06:25.845Z,8.10
2018-11-29T16:10:34.114Z,8.10
2018-11-29T16:14:43.500Z,8.10
2018-11-29T16:18:50.774Z,8.10
2018-11-29T16:22:59.131Z,8.10
2018-11-29T16:27:07.427Z,8.10
2018-11-29T16:31:15.715Z,8.10
2018-11-29T16:35:24.030Z,8.10
2018-11-29T16:39:32.322Z,8.10
2018-11-29T16:43:40.607Z,8.10
2018-11-29T16:47:48.921Z,8.10
2018-11-29T16:51:57.249Z,8.20
2018-11-29T16:56:05.973Z,8.20
2018-11-29T17:00:15.628Z,8.20
2018-11-29T17:04:23.971Z,8.20
2018-11-29T17:08:32.341Z,8.10
2018-11-29T17:12:40.882Z,8.10
2018-11-29T17:16:49.169Z,8.00
2018-11-29T17:25:06.921Z,8.00
2018-11-29T17:29:15.194Z,8.00
2018-11-29T17:33:23.479Z,8.00
2018-11-29T17:37:31.750Z,8.00
2018-11-29T17:41:40.102Z,8.00
2018-11-29T17:45:48.405Z,8.00
2018-11-29T17:49:56.764Z,8.00
2018-11-29T17:54:05.409Z,7.90
2018-11-29T17:58:14.846Z,7.90
2018-11-29T18:02:23.091Z,7.90
2018-11-29T18:06:31.402Z,7.90
2018-11-29T18:10:40.419Z,7.90
2018-11-29T18:14:48.758Z,8.00
2018-11-29T18:18:57.070Z,8.00
2018-11-29T18:23:05.876Z,8.00
2018-11-29T18:27:14.169Z,8.10
2018-11-29T18:31:22.454Z,8.10
2018-11-29T18:35:30.776Z,8.10
2018-11-29T18:39:39.120Z,8.20
2018-11-29T18:43:47.460Z,8.20
2018-11-29T18:47:56.133Z,8.20
2018-11-29T18:52:04.457Z,8.20
2018-11-29T18:56:12.777Z,8.20
2018-11-29T19:00:22.386Z,8.20
2018-11-29T19:04:30.693Z,8.20
2018-11-29T19:08:39.051Z,8.30
2018-11-29T19:12:57.652Z,8.30
2018-11-29T19:17:06.356Z,8.30
2018-11-29T19:21:14.785Z,8.20
2018-11-29T19:25:23.066Z,8.20
2018-11-29T19:29:31.463Z,8.20
2018-11-29T19:33:39.926Z,8.20
2018-11-29T19:37:48.229Z,8.20
2018-11-29T19:41:56.497Z,8.20
2018-11-29T19:46:04.842Z,8.20
2018-11-29T19:50:16.229Z,8.20
2018-11-29T19:54:24.514Z,8.20
2018-11-29T19:58:32.818Z,8.20
2018-11-29T20:02:41.605Z,8.10
2018-11-29T20:06:50.863Z,8.10
2018-11-29T20:10:59.117Z,8.10
2018-11-29T20:15:12.359Z,8.10
2018-11-29T20:19:20.797Z,8.10
2018-11-29T20:23:29.070Z,8.10
2018-11-29T20:27:37.498Z,8.10
2018-11-29T20:31:45.742Z,8.20
2018-11-29T20:35:54.066Z,8.20
2018-11-29T20:40:02.323Z,8.20
2018-11-29T20:44:10.745Z,8.20
2018-11-29T20:48:21.355Z,8.20
2018-11-29T20:52:29.688Z,8.20
2018-11-29T20:56:38.025Z,8.20
2018-11-29T21:00:46.345Z,8.10
2018-11-29T21:04:54.722Z,8.20
2018-11-29T21:09:03.129Z,8.20
2018-11-29T21:13:11.428Z,8.20
2018-11-29T21:17:19.767Z,8.20
2018-11-29T21:21:28.081Z,8.20
2018-11-29T21:25:36.496Z,8.20
2018-11-29T21:29:44.832Z,8.20
2018-11-29T21:33:53.158Z,8.20
2018-11-29T21:38:10.996Z,8.20
2018-11-29T21:42:19.597Z,8.20
2018-11-29T21:46:27.946Z,8.20
2018-11-29T21:50:36.218Z,8.30
2018-11-29T21:54:44.503Z,8.20
2018-11-29T21:58:52.782Z,8.30
2018-11-29T22:03:01.050Z,8.20
2018-11-29T22:07:09.400Z,8.30
2018-11-29T22:11:17.727Z,8.20
2018-11-29T22:15:26.010Z,8.30
2018-11-29T22:19:34.297Z,8.20
2018-11-29T22:23:42.595Z,8.20
2018-11-29T22:27:50.921Z,8.20
2018-11-29T22:31:59.263Z,8.20
2018-11-29T22:36:07.640Z,8.20
2018-11-29T22:40:15.897Z,8.20
2018-11-29T22:44:24.214Z,8.20
2018-11-29T22:48:32.584Z,8.20
2018-11-29T22:52:40.859Z,8.20
2018-11-29T22:56:49.194Z,8.20
2018-11-29T23:00:57.500Z,8.20
2018-11-29T23:05:06.341Z,8.20
2018-11-29T23:09:14.718Z,8.20
2018-11-29T23:13:23.018Z,8.20
2018-11-29T23:17:31.314Z,8.20
2018-11-29T23:25:47.681Z,8.20
2018-11-29T23:29:56.003Z,8.20
2018-11-29T23:34:04.432Z,8.20
2018-11-29T23:38:12.789Z,8.10
2018-11-29T23:42:21.152Z,8.10
2018-11-29T23:46:29.465Z,8.10
2018-11-29T23:50:37.868Z,8.10
2018-11-29T23:54:46.222Z,8.10
2018-11-29T23:58:54.583Z,8.10
